createdAt,value
2019-01-12T00:08:21.185Z,11.80
2019-01-12T00:18:26.622Z,12.00
2019-01-12T00:28:32.037Z,10.10
2019-01-12T00:38:37.395Z,10.23
2019-01-12T00:48:42.889Z,9.63
2019-01-12T00:58:48.389Z,9.40
2019-01-12T01:08:53.753Z,9.43
2019-01-12T01:18:58.987Z,9.90
2019-01-12T01:29:04.349Z,9.13
2019-01-12T01:39:10.114Z,9.20
2019-01-12T01:49:15.582Z,8.33
2019-01-12T01:59:21.043Z,7.47
2019-01-12T02:09:26.362Z,7.03
2019-01-12T02:19:31.776Z,8.20
2019-01-12T02:29:37.104Z,7.33
2019-01-12T02:39:42.505Z,7.27
2019-01-12T02:49:47.820Z,7.63
2019-01-12T02:59:53.515Z,7.80
2019-01-12T03:09:58.811Z,7.80
2019-01-12T03:20:04.838Z,8.57
2019-01-12T03:30:13.973Z,8.07
2019-01-12T03:40:20.586Z,7.90
2019-01-12T03:50:25.923Z,7.83
2019-01-12T04:00:31.263Z,7.90
2019-01-12T04:10:36.622Z,6.97
2019-01-12T04:20:42.060Z,7.23
2019-01-12T04:30:47.488Z,7.10
2019-01-12T04:40:52.844Z,6.43
2019-01-12T04:50:58.382Z,6.10
2019-01-12T05:01:03.753Z,6.63
2019-01-12T05:11:09.199Z,6.53
2019-01-12T05:21:14.654Z,6.23
2019-01-12T05:31:20.044Z,5.13
2019-01-12T05:41:25.397Z,6.27
2019-01-12T05:51:30.811Z,6.13
2019-01-12T06:01:36.185Z,6.50
2019-01-12T06:11:41.545Z,5.90
2019-01-12T06:21:47.085Z,6.37
2019-01-12T06:31:52.447Z,5.63
2019-01-12T06:41:57.931Z,6.33
2019-01-12T06:52:03.414Z,6.30
2019-01-12T07:02:08.631Z,6.00
2019-01-12T07:12:14.064Z,5.27
2019-01-12T07:22:19.436Z,5.90
2019-01-12T07:32:24.758Z,5.63
2019-01-12T07:42:30.187Z,5.60
2019-01-12T07:52:35.678Z,6.10
2019-01-12T08:02:41.024Z,6.63
2019-01-12T08:12:46.506Z,6.33
2019-01-12T08:22:53.533Z,6.73
2019-01-12T08:32:59.062Z,5.80
2019-01-12T08:43:04.388Z,5.50
2019-01-12T08:53:09.806Z,7.67
2019-01-12T09:03:15.422Z,10.50
2019-01-12T09:13:20.846Z,10.90
2019-01-12T09:23:26.324Z,10.03
2019-01-12T09:33:31.807Z,11.70
2019-01-12T09:43:37.186Z,10.77
2019-01-12T09:53:42.528Z,10.87
2019-01-12T10:03:48.828Z,11.73
2019-01-12T10:13:54.208Z,10.90
2019-01-12T10:23:59.744Z,11.23
2019-01-12T10:34:05.170Z,13.03
2019-01-12T10:44:10.660Z,12.10
2019-01-12T10:54:16.107Z,12.13
2019-01-12T11:04:21.659Z,9.43
2019-01-12T11:14:27.045Z,9.03
2019-01-12T11:24:32.563Z,10.10
2019-01-12T11:34:37.967Z,9.50
2019-01-12T11:44:43.446Z,9.20
2019-01-12T11:54:48.875Z,8.40
2019-01-12T12:04:54.204Z,9.07
2019-01-12T12:14:59.719Z,8.67
2019-01-12T12:25:05.645Z,10.83
2019-01-12T12:35:11.259Z,12.37
2019-01-12T12:45:18.899Z,12.20
2019-01-12T12:55:25.179Z,13.07
2019-01-12T13:05:30.709Z,11.97
2019-01-12T13:15:36.135Z,10.40
2019-01-12T13:25:41.647Z,9.80
2019-01-12T13:35:47.087Z,11.70
2019-01-12T13:45:52.571Z,10.93
2019-01-12T13:55:57.965Z,11.20
2019-01-12T14:06:03.332Z,10.80
2019-01-12T14:16:08.723Z,10.97
2019-01-12T14:26:14.119Z,10.47
2019-01-12T14:36:19.847Z,10.13
2019-01-12T14:46:25.475Z,10.50
2019-01-12T14:56:30.811Z,10.83
2019-01-12T15:06:36.155Z,9.80
2019-01-12T15:16:41.542Z,10.07
2019-01-12T15:26:47.000Z,10.97
2019-01-12T15:36:52.454Z,10.17
2019-01-12T15:46:57.851Z,10.70
2019-01-12T15:57:03.276Z,9.50
2019-01-12T16:07:09.606Z,11.20
2019-01-12T16:17:15.034Z,12.50
2019-01-12T16:27:20.572Z,12.90
2019-01-12T16:37:26.049Z,14.73
2019-01-12T16:47:31.822Z,17.57
2019-01-12T16:57:37.310Z,16.13
2019-01-12T17:07:43.064Z,14.23
2019-01-12T17:17:48.410Z,14.67
2019-01-12T17:27:53.878Z,12.83
2019-01-12T17:37:59.584Z,14.27
2019-01-12T17:48:05.056Z,14.43
2019-01-12T17:58:10.547Z,14.90
2019-01-12T18:08:16.103Z,15.93
2019-01-12T18:18:21.479Z,17.00
2019-01-12T18:28:26.886Z,15.63
2019-01-12T18:38:32.229Z,17.43
2019-01-12T18:48:37.711Z,18.10
2019-01-12T18:58:43.067Z,16.50
2019-01-12T19:08:48.521Z,16.73
2019-01-12T19:18:54.159Z,16.90
2019-01-12T19:29:06.176Z,16.33
2019-01-12T19:39:08.787Z,17.27
2019-01-12T19:49:14.367Z,17.23
2019-01-12T19:59:19.822Z,17.57
2019-01-12T20:09:25.175Z,20.73
2019-01-12T20:19:30.523Z,16.77
2019-01-12T20:29:36.216Z,16.70
2019-01-12T20:40:16.989Z,15.70
2019-01-12T20:50:42.136Z,16.60
2019-01-12T21:01:32.834Z,16.33
2019-01-12T21:12:22.303Z,14.53
2019-01-12T21:22:27.878Z,15.93
2019-01-12T21:32:33.314Z,15.13
2019-01-12T21:42:38.652Z,14.20
2019-01-12T21:52:43.982Z,15.43
2019-01-12T22:02:49.818Z,14.37
2019-01-12T22:12:55.245Z,16.50
2019-01-12T22:23:00.724Z,18.23
2019-01-12T22:33:06.245Z,17.17
2019-01-12T22:43:11.634Z,18.60
2019-01-12T22:53:17.112Z,19.37
2019-01-12T23:03:22.532Z,18.60
2019-01-12T23:13:27.997Z,20.17
2019-01-12T23:23:33.434Z,19.60
2019-01-12T23:33:38.827Z,18.37
2019-01-12T23:43:44.173Z,17.30
2019-01-12T23:53:49.527Z,15.80
